createdAt,value
2017-08-15T00:02:03.859Z,58.2
2017-08-15T00:07:03.838Z,58.2
2017-08-15T00:12:03.938Z,58.3
2017-08-15T00:17:03.986Z,58.3
2017-08-15T00:22:03.693Z,58.3
2017-08-15T00:27:03.865Z,58.4
2017-08-15T00:32:03.804Z,58.3
2017-08-15T00:37:03.179Z,58.2
2017-08-15T00:42:03.030Z,58.2
2017-08-15T00:47:03.733Z,58.2
2017-08-15T00:52:03.567Z,58.2
2017-08-15T00:57:03.471Z,58.3
2017-08-15T01:02:03.404Z,58.4
2017-08-15T01:12:06.504Z,58.4
2017-08-15T01:17:03.942Z,58.3
2017-08-15T01:22:03.249Z,58.3
2017-08-15T01:27:03.272Z,58.3
2017-08-15T01:32:03.902Z,58.2
2017-08-15T01:37:03.427Z,58.2
2017-08-15T01:42:03.372Z,58.2
2017-08-15T01:47:03.327Z,58.1
2017-08-15T01:52:03.127Z,58.1
2017-08-15T01:57:03.016Z,58.1
2017-08-15T02:02:03.303Z,58.0
2017-08-15T02:07:04.030Z,58.1
2017-08-15T02:12:03.821Z,58.0
2017-08-15T02:17:03.673Z,57.9
2017-08-15T02:22:03.558Z,57.9
2017-08-15T02:27:03.378Z,57.9
2017-08-15T02:32:03.197Z,57.7
2017-08-15T02:37:03.963Z,57.7
2017-08-15T02:42:03.238Z,57.8
2017-08-15T02:47:03.498Z,57.7
2017-08-15T02:52:03.743Z,57.6
2017-08-15T02:57:03.066Z,57.6
2017-08-15T03:02:03.689Z,57.5
2017-08-15T03:07:03.873Z,57.3
2017-08-15T03:12:03.376Z,57.4
2017-08-15T03:17:03.919Z,57.5
2017-08-15T03:22:04.016Z,57.5
2017-08-15T03:27:03.376Z,57.5
2017-08-15T03:32:03.895Z,57.5
2017-08-15T03:37:03.194Z,57.4
2017-08-15T03:42:03.442Z,57.5
2017-08-15T03:47:16.541Z,57.5
2017-08-15T03:52:03.257Z,57.6
2017-08-15T03:57:03.968Z,57.6
2017-08-15T04:02:23.605Z,57.6
2017-08-15T04:07:03.689Z,57.5
2017-08-15T04:12:03.205Z,57.6
2017-08-15T04:17:22.678Z,57.6
2017-08-15T04:22:03.969Z,57.5
2017-08-15T04:27:03.613Z,57.9
2017-08-15T04:32:22.279Z,57.5
2017-08-15T04:37:03.449Z,57.5
2017-08-15T04:42:03.804Z,57.5
2017-08-15T04:47:26.495Z,57.6
2017-08-15T04:52:03.626Z,57.6
2017-08-15T04:57:03.042Z,57.5
2017-08-15T05:02:26.406Z,57.1
2017-08-15T05:07:03.936Z,57.0
2017-08-15T05:12:03.563Z,56.9
2017-08-15T05:17:24.413Z,56.9
2017-08-15T05:22:03.699Z,56.7
2017-08-15T05:27:03.975Z,56.6
2017-08-15T05:32:28.323Z,56.6
2017-08-15T05:37:03.892Z,56.5
2017-08-15T05:42:03.297Z,56.6
2017-08-15T05:47:23.249Z,56.6
2017-08-15T05:52:03.209Z,56.5
2017-08-15T05:57:03.681Z,56.6
2017-08-15T06:02:27.467Z,56.5
2017-08-15T06:07:03.727Z,56.7
2017-08-15T06:12:03.301Z,56.6
2017-08-15T06:17:24.427Z,56.6
2017-08-15T06:22:03.227Z,56.7
2017-08-15T06:27:03.733Z,56.7
2017-08-15T06:32:21.702Z,56.7
2017-08-15T06:37:03.069Z,56.8
2017-08-15T06:42:03.483Z,56.9
2017-08-15T06:47:08.434Z,56.8
2017-08-15T06:52:04.293Z,57.0
2017-08-15T06:57:04.500Z,57.0
2017-08-15T07:02:05.342Z,57.6
2017-08-15T07:07:03.710Z,57.1
2017-08-15T07:12:03.211Z,57.3
2017-08-15T07:17:13.682Z,57.3
2017-08-15T07:22:03.163Z,57.3
2017-08-15T07:27:03.654Z,57.3
2017-08-15T07:32:25.084Z,57.3
2017-08-15T07:37:05.250Z,57.3
2017-08-15T07:42:04.133Z,57.2
2017-08-15T07:47:27.829Z,57.3
2017-08-15T07:52:03.338Z,57.6
2017-08-15T07:57:03.756Z,58.0
2017-08-15T08:07:03.594Z,58.3
2017-08-15T08:12:03.978Z,58.3
2017-08-15T08:17:25.588Z,58.3
2017-08-15T08:22:03.771Z,58.1
2017-08-15T08:27:03.278Z,58.6
2017-08-15T08:32:27.104Z,58.4
2017-08-15T08:37:03.765Z,58.9
2017-08-15T08:42:03.332Z,58.3
2017-08-15T08:52:03.463Z,58.7
2017-08-15T08:57:03.818Z,58.8
2017-08-15T09:02:23.202Z,59.4
2017-08-15T09:07:03.931Z,59.0
2017-08-15T09:12:03.599Z,59.1
2017-08-15T09:17:27.984Z,59.1
2017-08-15T09:22:03.364Z,58.8
2017-08-15T09:27:03.832Z,58.8
2017-08-15T09:32:23.520Z,59.4
2017-08-15T09:37:03.617Z,59.6
2017-08-15T09:42:03.137Z,59.6
2017-08-15T09:47:22.390Z,59.4
2017-08-15T09:52:03.661Z,59.4
2017-08-15T09:57:03.092Z,59.3
2017-08-15T10:02:28.387Z,59.0
2017-08-15T10:07:03.759Z,59.2
2017-08-15T10:12:03.245Z,59.2
2017-08-15T10:22:03.492Z,59.4
2017-08-15T10:27:03.768Z,59.7
2017-08-15T10:32:23.942Z,59.6
2017-08-15T10:37:03.614Z,59.5
2017-08-15T10:42:03.958Z,60.4
2017-08-15T10:47:25.435Z,60.3
2017-08-15T10:52:03.224Z,60.0
2017-08-15T10:57:03.747Z,60.3
2017-08-15T11:02:18.150Z,60.3
2017-08-15T11:07:03.579Z,59.9
2017-08-15T11:12:03.265Z,59.9
2017-08-15T11:17:21.426Z,60.3
2017-08-15T11:22:03.634Z,59.9
2017-08-15T11:27:03.256Z,60.3
2017-08-15T11:32:27.836Z,60.1
2017-08-15T11:37:03.743Z,60.1
2017-08-15T11:42:03.293Z,59.9
2017-08-15T11:47:29.311Z,59.1
2017-08-15T11:52:03.757Z,58.8
2017-08-15T11:57:03.348Z,58.0
2017-08-15T12:02:20.238Z,58.0
2017-08-15T12:07:03.667Z,57.7
2017-08-15T12:12:03.146Z,57.5
2017-08-15T12:17:25.410Z,57.0
2017-08-15T12:22:03.348Z,57.2
2017-08-15T12:27:03.806Z,57.2
2017-08-15T12:32:26.088Z,56.5
2017-08-15T12:37:03.608Z,56.5
2017-08-15T12:42:03.189Z,56.9
2017-08-15T12:47:27.581Z,55.8
2017-08-15T12:52:03.023Z,55.8
2017-08-15T12:57:03.519Z,57.0
2017-08-15T13:02:18.967Z,57.5
2017-08-15T13:07:03.791Z,57.5
2017-08-15T13:12:03.388Z,57.3
2017-08-15T13:17:19.175Z,56.9
2017-08-15T13:22:03.650Z,56.8
2017-08-15T13:27:03.989Z,56.8
2017-08-15T13:32:26.892Z,58.0
2017-08-15T13:37:03.223Z,57.8
2017-08-15T13:42:03.738Z,56.5
2017-08-15T13:47:24.711Z,56.8
2017-08-15T13:52:03.760Z,56.4
2017-08-15T13:57:03.231Z,56.4
2017-08-15T14:02:27.984Z,56.3
2017-08-15T14:07:03.353Z,57.1
2017-08-15T14:12:03.883Z,57.0
2017-08-15T14:17:25.455Z,56.2
2017-08-15T14:22:03.852Z,56.7
2017-08-15T14:27:03.209Z,56.7
2017-08-15T14:32:28.012Z,54.4
2017-08-15T14:37:03.142Z,53.5
2017-08-15T14:42:03.608Z,53.4
2017-08-15T14:47:27.666Z,53.4
2017-08-15T14:52:03.591Z,50.1
2017-08-15T14:57:03.073Z,49.0
2017-08-15T15:02:23.960Z,51.1
2017-08-15T15:07:03.497Z,51.1
2017-08-15T15:12:03.965Z,50.6
2017-08-15T15:17:26.940Z,50.6
2017-08-15T15:22:03.328Z,51.5
2017-08-15T15:27:03.723Z,54.7
2017-08-15T15:32:19.201Z,55.5
2017-08-15T15:37:03.264Z,55.4
2017-08-15T15:42:03.641Z,56.4
2017-08-15T15:47:24.563Z,56.4
2017-08-15T15:52:03.893Z,57.1
2017-08-15T15:57:03.349Z,57.0
2017-08-15T16:02:25.503Z,57.8
2017-08-15T16:07:03.901Z,57.5
2017-08-15T16:12:03.437Z,57.4
2017-08-15T16:17:21.829Z,57.5
2017-08-15T16:22:03.608Z,57.7
2017-08-15T16:27:03.954Z,57.7
2017-08-15T16:32:21.847Z,57.5
2017-08-15T16:37:03.776Z,57.7
2017-08-15T16:42:03.223Z,58.0
2017-08-15T16:47:24.133Z,58.0
2017-08-15T16:52:03.299Z,57.5
2017-08-15T16:57:03.788Z,57.4
2017-08-15T17:02:27.302Z,57.4
2017-08-15T17:07:03.789Z,57.3
2017-08-15T17:12:03.772Z,57.2
2017-08-15T17:17:28.193Z,57.5
2017-08-15T17:22:03.727Z,57.5
2017-08-15T17:27:03.185Z,57.5
2017-08-15T17:32:23.913Z,57.5
2017-08-15T17:37:03.199Z,57.5
2017-08-15T17:42:03.618Z,57.7
2017-08-15T17:52:03.703Z,57.8
2017-08-15T17:57:03.045Z,57.8
2017-08-15T18:02:04.042Z,58.1
2017-08-15T18:07:03.335Z,58.1
2017-08-15T18:12:03.152Z,58.2
2017-08-15T18:17:24.715Z,58.3
2017-08-15T18:22:03.417Z,58.3
2017-08-15T18:27:03.672Z,58.2
2017-08-15T18:32:22.359Z,58.2
2017-08-15T18:37:03.303Z,58.3
2017-08-15T18:42:03.694Z,58.0
2017-08-15T18:47:27.991Z,58.2
2017-08-15T18:52:03.637Z,58.2
2017-08-15T18:57:03.168Z,58.3
2017-08-15T19:02:20.702Z,58.2
2017-08-15T19:07:03.154Z,58.2
2017-08-15T19:12:03.701Z,58.4
2017-08-15T19:17:05.050Z,58.4
2017-08-15T19:22:03.388Z,58.3
2017-08-15T19:27:03.808Z,58.3
2017-08-15T19:32:03.202Z,58.3
2017-08-15T19:37:03.460Z,58.3
2017-08-15T19:42:03.695Z,58.3
2017-08-15T19:47:03.061Z,58.3
2017-08-15T19:52:03.422Z,58.2
2017-08-15T19:57:03.710Z,58.1
2017-08-15T20:02:03.362Z,58.1
2017-08-15T20:07:03.571Z,58.2
2017-08-15T20:12:04.039Z,58.1
2017-08-15T20:17:03.317Z,58.1
2017-08-15T20:22:03.865Z,58.1
2017-08-15T20:27:03.210Z,58.1
2017-08-15T20:32:03.552Z,58.1
2017-08-15T20:37:03.829Z,58.1
2017-08-15T20:42:03.169Z,58.2
2017-08-15T20:47:04.174Z,58.3
2017-08-15T20:52:03.877Z,58.2
2017-08-15T20:57:03.284Z,58.2
2017-08-15T21:02:03.674Z,58.3
2017-08-15T21:07:03.302Z,58.2
2017-08-15T21:12:03.637Z,58.3
2017-08-15T21:17:04.011Z,58.3
2017-08-15T21:22:03.421Z,58.3
2017-08-15T21:27:03.709Z,58.3
2017-08-15T21:32:04.235Z,58.3
2017-08-15T21:37:03.407Z,58.4
2017-08-15T21:42:03.638Z,58.4
2017-08-15T21:47:04.027Z,58.4
2017-08-15T21:52:03.364Z,58.5
2017-08-15T21:57:03.666Z,58.4
2017-08-15T22:02:03.251Z,58.8
2017-08-15T22:07:03.691Z,58.3
2017-08-15T22:12:03.756Z,58.4
2017-08-15T22:22:04.278Z,58.3
2017-08-15T22:27:03.503Z,58.4
2017-08-15T22:32:03.264Z,58.3
2017-08-15T22:37:03.414Z,58.3
2017-08-15T22:42:03.201Z,58.1
2017-08-15T22:47:03.947Z,58.0
2017-08-15T22:52:02.936Z,58.0
2017-08-15T22:57:03.666Z,58.0
2017-08-15T23:02:03.527Z,58.3
2017-08-15T23:07:03.360Z,58.3
2017-08-15T23:12:03.453Z,58.3
2017-08-15T23:17:03.680Z,58.3
2017-08-15T23:22:03.694Z,58.1
2017-08-15T23:27:03.726Z,58.3
2017-08-15T23:32:03.966Z,58.4
2017-08-15T23:37:03.285Z,58.4
2017-08-15T23:42:03.395Z,58.4
2017-08-15T23:47:03.740Z,58.1
2017-08-15T23:52:03.446Z,58.3
2017-08-15T23:57:03.586Z,58.2
